Time;durP1;ratioP1;P1;durP2;ratioP2;P2;SDS_P1;SDS_P2;PMS_P1;PMS_P2;Temp;Humidity;BMP_temperature;BMP_pressure;BME280_temperature;BME280_humidity;BME280_pressure;Samples;Min_cycle;Max_cycle;Signal;HPM_P1;HPM_P2
2022/10/05 00:01:44;;;;;;;51.53;32.80;;;;;;;18.10;100.00;100623.19;4990028;28;20045;-79
2022/10/05 00:04:22;;;;;;;52.72;32.72;;;;;;;18.12;100.00;100631.88;4989837;28;20038;-78
2022/10/05 00:07:11;;;;;;;53.67;33.55;;;;;;;18.12;100.00;100629.19;4990173;28;20097;-79
2022/10/05 00:09:36;;;;;;;51.35;33.35;;;;;;;18.11;100.00;100624.84;4987107;28;20434;-79
2022/10/05 00:12:17;;;;;;;51.35;32.22;;;;;;;18.05;100.00;100628.19;4989536;28;20034;-76
2022/10/05 00:14:45;;;;;;;50.00;32.60;;;;;;;18.03;100.00;100624.81;4987974;28;20062;-78
2022/10/05 00:17:29;;;;;;;48.35;31.10;;;;;;;18.02;100.00;100620.50;4990324;28;20100;-78
2022/10/05 00:19:55;;;;;;;48.55;30.40;;;;;;;18.05;100.00;100620.16;4990798;28;20030;-77
2022/10/05 00:22:32;;;;;;;50.60;33.20;;;;;;;18.07;100.00;100620.84;4990341;28;20053;-77
2022/10/05 00:25:00;;;;;;;48.08;31.45;;;;;;;18.08;100.00;100624.34;4990750;28;20049;-78
2022/10/05 00:27:32;;;;;;;51.78;32.30;;;;;;;18.10;100.00;100623.19;4990593;28;20387;-80
2022/10/05 00:30:01;;;;;;;50.15;32.30;;;;;;;18.00;100.00;100617.16;4993003;28;20033;-78
2022/10/05 00:32:27;;;;;;;46.03;30.73;;;;;;;17.96;100.00;100630.03;4994150;28;20079;-79
2022/10/05 00:34:53;;;;;;;51.75;32.28;;;;;;;17.95;100.00;100615.00;4976850;28;20149;-77
2022/10/05 00:37:18;;;;;;;49.03;29.83;;;;;;;17.99;100.00;100620.81;4994053;28;20034;-77
2022/10/05 00:39:44;;;;;;;53.80;33.58;;;;;;;17.99;100.00;100626.16;4991993;28;20042;-77
2022/10/05 00:42:36;;;;;;;50.47;30.92;;;;;;;18.00;100.00;100622.50;4976429;28;20030;-78
2022/10/05 00:45:12;;;;;;;50.15;31.60;;;;;;;18.02;100.00;100619.69;4979531;28;20104;-78
2022/10/05 00:48:14;;;;;;;47.33;31.23;;;;;;;18.04;100.00;100626.50;4990552;28;20375;-78
2022/10/05 00:50:40;;;;;;;46.90;30.85;;;;;;;18.01;100.00;100618.84;4990921;28;20121;-78
2022/10/05 00:53:27;;;;;;;43.42;30.65;;;;;;;17.99;100.00;100626.16;4993193;28;20520;-78
2022/10/05 00:56:19;;;;;;;46.88;31.15;;;;;;;18.00;100.00;100617.16;4992593;28;20402;-78
2022/10/05 00:59:22;;;;;;;48.47;31.38;;;;;;;18.02;100.00;100625.84;4974885;28;20034;-79
2022/10/05 01:02:20;;;;;;;48.55;31.38;;;;;;;18.01;100.00;100624.19;4991899;28;20069;-80
2022/10/05 01:04:55;;;;;;;49.40;31.80;;;;;;;17.94;100.00;100625.81;4988545;28;20464;-79
2022/10/05 01:07:55;;;;;;;44.13;30.15;;;;;;;17.95;100.00;100627.50;4993000;28;20113;-80
2022/10/05 01:10:35;;;;;;;50.17;32.38;;;;;;;17.94;100.00;100628.50;4991930;28;20447;-79
2022/10/05 01:13:02;;;;;;;52.72;32.95;;;;;;;17.93;100.00;100621.47;4975033;28;20037;-79
2022/10/05 01:15:30;;;;;;;46.88;30.50;;;;;;;17.95;100.00;100625.69;4992998;28;20053;-78
2022/10/05 01:18:11;;;;;;;43.83;30.55;;;;;;;17.96;100.00;100621.16;4995964;28;20049;-79
2022/10/05 01:20:45;;;;;;;46.88;30.95;;;;;;;17.98;100.00;100611.13;4991460;28;20113;-79
2022/10/05 01:23:25;;;;;;;50.00;31.13;;;;;;;17.98;100.00;100621.81;4992865;28;20054;-77
2022/10/05 01:25:53;;;;;;;50.80;30.42;;;;;;;17.91;100.00;100615.47;4993107;28;20092;-78
2022/10/05 01:28:27;;;;;;;47.95;31.95;;;;;;;17.83;100.00;100620.81;4974814;28;20038;-77
2022/10/05 01:31:02;;;;;;;46.60;30.10;;;;;;;17.87;100.00;100616.78;4993892;28;20050;-77
2022/10/05 01:33:32;;;;;;;45.92;31.60;;;;;;;17.87;100.00;100619.47;4993168;28;20042;-78
2022/10/05 01:36:31;;;;;;;45.33;31.83;;;;;;;17.90;100.00;100611.16;4993481;28;20125;-78
2022/10/05 01:39:07;;;;;;;45.55;31.80;;;;;;;17.85;100.00;100614.28;4996807;28;20034;-77
2022/10/05 01:41:47;;;;;;;47.45;31.42;;;;;;;17.75;100.00;100612.75;4971206;28;20042;-78
2022/10/05 01:44:30;;;;;;;46.22;30.00;;;;;;;17.78;100.00;100613.28;4990400;28;20042;-77
2022/10/05 01:47:08;;;;;;;49.97;31.85;;;;;;;17.78;100.00;100602.63;4975854;28;20030;-77
2022/10/05 01:49:42;;;;;;;47.28;30.52;;;;;;;17.81;100.00;100602.28;5004290;23;20057;-73
2022/10/05 01:52:11;;;;;;;49.97;29.98;;;;;;;17.85;100.00;100602.75;4989477;28;20042;-73
2022/10/05 01:54:54;;;;;;;49.97;31.35;;;;;;;17.87;100.00;100601.63;4992623;28;20044;-74
2022/10/05 01:57:54;;;;;;;51.47;32.45;;;;;;;17.78;100.00;100599.94;4995708;28;20117;-74
2022/10/05 02:00:21;;;;;;;46.47;31.60;;;;;;;17.70;100.00;100602.59;4995094;28;20062;-75
2022/10/05 02:03:00;;;;;;;47.53;30.10;;;;;;;17.75;100.00;100607.44;4992411;28;20068;-74
2022/10/05 02:05:40;;;;;;;43.58;29.83;;;;;;;17.77;100.00;100598.25;4991457;28;20133;-74
2022/10/05 02:08:15;;;;;;;50.80;31.80;;;;;;;17.80;100.00;100595.25;4970738;28;20117;-75
2022/10/05 02:10:46;;;;;;;46.25;30.50;;;;;;;17.81;100.00;100596.09;4974513;28;20034;-74
2022/10/05 02:13:21;;;;;;;51.95;31.85;;;;;;;17.81;100.00;100593.41;4992021;28;20081;-74
2022/10/05 02:15:55;;;;;;;43.03;29.10;;;;;;;17.85;100.00;100592.91;4972022;28;20554;-74
2022/10/05 02:18:28;;;;;;;47.40;30.92;;;;;;;17.84;100.00;100598.44;4992216;28;20731;-74
2022/10/05 02:20:57;;;;;;;52.90;32.10;;;;;;;17.84;100.00;100606.47;4991839;28;20058;-74
2022/10/05 02:23:29;;;;;;;55.92;33.60;;;;;;;17.74;100.00;100595.91;4992009;28;20030;-74
2022/10/05 02:25:57;;;;;;;50.42;31.98;;;;;;;17.70;100.00;100588.41;4992263;28;20038;-74
2022/10/05 02:28:36;;;;;;;47.55;32.67;;;;;;;17.71;100.00;100585.56;4974197;28;20038;-74
2022/10/05 02:31:09;;;;;;;47.38;30.35;;;;;;;17.77;100.00;100586.75;4988325;28;20027;-74
2022/10/05 02:33:35;;;;;;;52.15;33.45;;;;;;;17.79;100.00;100593.56;4988676;28;20066;-74
2022/10/05 02:36:18;;;;;;;50.55;31.52;;;;;;;17.78;100.00;100586.59;4977520;28;20037;-74
2022/10/05 02:38:52;;;;;;;45.50;32.40;;;;;;;17.74;100.00;100582.56;4972267;28;20034;-74
2022/10/05 02:41:32;;;;;;;47.30;32.05;;;;;;;17.74;100.00;100589.72;4991503;28;20038;-74
2022/10/05 02:44:04;;;;;;;52.78;31.17;;;;;;;17.76;100.00;100587.75;4991353;28;20043;-74
2022/10/05 02:47:00;;;;;;;54.83;34.78;;;;;;;17.77;100.00;100589.41;4958214;28;20041;-74
2022/10/05 02:49:43;;;;;;;47.47;31.77;;;;;;;17.77;100.00;100590.25;4973607;28;20038;-72
2022/10/05 02:52:21;;;;;;;45.40;30.33;;;;;;;17.79;100.00;100587.44;4968593;28;20120;-74
2022/10/05 02:55:18;;;;;;;50.58;31.15;;;;;;;17.79;100.00;100587.44;4977833;28;20038;-75
2022/10/05 02:58:05;;;;;;;41.88;30.33;;;;;;;17.82;100.00;100587.09;4989516;28;20037;-74
2022/10/05 03:00:40;;;;;;;49.38;30.50;;;;;;;17.82;100.00;100595.09;4970630;28;20034;-73
2022/10/05 03:03:23;;;;;;;47.25;31.77;;;;;;;17.81;100.00;100596.09;4970959;28;20061;-74
2022/10/05 03:05:59;;;;;;;50.22;31.33;;;;;;;17.82;100.00;100587.94;4974165;28;20046;-74
2022/10/05 03:08:50;;;;;;;51.47;34.05;;;;;;;17.81;100.00;100590.75;4973464;28;20034;-74
2022/10/05 03:11:36;;;;;;;46.67;29.63;;;;;;;17.81;100.00;100590.75;4971791;28;20027;-74
2022/10/05 03:14:59;;;;;;;47.88;29.52;;;;;;;17.83;100.00;100588.75;4973760;28;20444;-75
2022/10/05 03:18:00;;;;;;;48.25;30.50;;;;;;;17.82;100.00;100592.44;4895630;29;20127;-74
2022/10/05 03:20:45;;;;;;;45.65;30.13;;;;;;;17.82;100.00;100587.94;4911269;29;20051;-74
2022/10/05 03:23:27;;;;;;;48.28;31.50;;;;;;;17.82;100.00;100587.09;4896306;29;20088;-74
2022/10/05 03:26:11;;;;;;;46.95;31.20;;;;;;;17.83;100.00;100594.09;4892603;29;20044;-75
2022/10/05 03:28:56;;;;;;;46.28;29.75;;;;;;;17.84;100.00;100585.09;4906731;29;20041;-74
2022/10/05 03:31:29;;;;;;;47.08;31.70;;;;;;;17.84;100.00;100590.44;4911904;29;20047;-74
2022/10/05 03:34:14;;;;;;;43.40;30.85;;;;;;;17.83;100.00;100591.44;4896336;29;20044;-75
2022/10/05 03:37:03;;;;;;;50.63;31.50;;;;;;;17.83;100.00;100594.09;4909309;29;20520;-74
2022/10/05 03:39:37;;;;;;;;;;;;;;;17.81;100.00;100602.28;4912111;29;20559;-74
2022/10/05 03:42:08;;;;;;;53.63;32.38;;;;;;;17.81;100.00;100598.75;4904628;29;20391;-73
2022/10/05 03:45:15;;;;;;;49.13;32.28;;;;;;;17.80;100.00;100599.75;4908570;29;20100;-73
2022/10/05 03:47:52;;;;;;;42.35;29.23;;;;;;;17.78;100.00;100604.44;4931921;28;20447;-73
2022/10/05 03:50:30;;;;;;;46.47;28.45;;;;;;;17.77;100.00;100605.44;4994088;28;20113;-73
2022/10/05 03:53:04;;;;;;;40.35;26.38;;;;;;;17.70;100.00;100609.75;4973623;28;20437;-74
2022/10/05 03:56:12;;;;;;;36.75;25.85;;;;;;;17.69;100.00;100608.06;4968769;28;20117;-74
2022/10/05 03:58:44;;;;;;;37.70;25.65;;;;;;;17.69;100.00;100608.06;4970097;28;20034;-74
2022/10/05 04:01:15;;;;;;;39.45;25.80;;;;;;;17.67;100.00;100605.56;4990046;28;20038;-73
2022/10/05 04:03:48;;;;;;;39.10;26.85;;;;;;;17.67;100.00;100604.75;4973071;28;20133;-74
2022/10/05 04:06:32;;;;;;;37.17;26.98;;;;;;;17.64;100.00;100610.41;4976451;28;20035;-74
2022/10/05 04:09:01;;;;;;;38.47;26.92;;;;;;;17.64;100.00;100610.41;4997605;28;20071;-74
2022/10/05 04:11:51;;;;;;;42.05;26.50;;;;;;;17.63;100.00;100614.91;4994320;28;20041;-74
2022/10/05 04:14:56;;;;;;;39.77;26.33;;;;;;;17.60;100.00;100604.56;4976189;28;20487;-73
2022/10/05 04:17:34;;;;;;;38.78;26.65;;;;;;;17.58;100.00;100612.69;4975473;28;20521;-75
2022/10/05 04:20:04;;;;;;;43.10;28.58;;;;;;;17.57;100.00;100611.00;4977136;28;20445;-74
2022/10/05 04:22:36;;;;;;;41.25;28.55;;;;;;;17.54;100.00;100603.34;4976915;28;20183;-73
2022/10/05 04:25:14;;;;;;;40.05;27.33;;;;;;;17.56;100.00;100605.84;4972900;28;20522;-74
2022/10/05 04:27:49;;;;;;;43.38;29.02;;;;;;;17.53;100.00;100608.84;4974248;28;20037;-73
2022/10/05 04:30:18;;;;;;;46.25;29.42;;;;;;;17.52;100.00;100608.00;4978458;28;20042;-73
2022/10/05 04:32:53;;;;;;;44.72;28.50;;;;;;;17.52;100.00;100612.50;4976608;28;20058;-74
2022/10/05 04:35:43;;;;;;;39.35;27.15;;;;;;;17.52;100.00;100617.84;4976124;28;20059;-74
2022/10/05 04:38:55;;;;;;;40.60;28.63;;;;;;;17.50;100.00;100618.00;4989704;28;20038;-73
2022/10/05 04:41:27;;;;;;;37.63;27.95;;;;;;;17.51;100.00;100619.66;4939866;29;20511;-74
2022/10/05 04:44:17;;;;;;;41.70;28.05;;;;;;;17.47;100.00;100615.66;4933152;29;20162;-74
2022/10/05 04:47:14;;;;;;;41.80;28.05;;;;;;;17.45;100.00;100608.81;4933726;29;20086;-74
2022/10/05 04:50:04;;;;;;;39.28;27.70;;;;;;;17.44;100.00;100615.97;4933076;29;20056;-75
2022/10/05 04:52:42;;;;;;;43.88;29.55;;;;;;;17.44;100.00;100615.97;4931623;29;20094;-74
2022/10/05 04:55:13;;;;;;;38.97;28.17;;;;;;;17.42;100.00;100609.97;4930568;29;20052;-75
2022/10/05 04:58:14;;;;;;;44.33;30.08;;;;;;;17.44;100.00;100610.63;4933472;29;20143;-74
2022/10/05 05:00:57;;;;;;;44.00;28.48;;;;;;;17.39;100.00;100612.94;4904515;29;20040;-75
2022/10/05 05:03:22;;;;;;;48.58;30.27;;;;;;;17.42;100.00;100612.66;4929734;29;20032;-73
2022/10/05 05:06:06;;;;;;;52.38;31.13;;;;;;;17.42;100.00;100615.31;4933318;29;20058;-74
2022/10/05 05:08:46;;;;;;;43.88;29.83;;;;;;;17.40;100.00;100609.28;4933110;29;20062;-75
2022/10/05 05:11:40;;;;;;;49.83;31.70;;;;;;;17.42;100.00;100609.97;4940274;28;20062;-73
2022/10/05 05:14:32;;;;;;;52.03;32.42;;;;;;;17.36;100.00;100607.94;4975512;28;20100;-75
2022/10/05 05:17:16;;;;;;;54.28;35.50;;;;;;;17.38;100.00;100613.94;4992094;28;20041;-74
2022/10/05 05:20:07;;;;;;;50.42;33.55;;;;;;;17.36;100.00;100607.94;4998869;28;20042;-71
2022/10/05 05:23:04;;;;;;;55.53;37.38;;;;;;;17.32;100.00;100619.91;4996543;28;20391;-72
2022/10/05 05:25:55;;;;;;;51.90;33.20;;;;;;;17.33;100.00;100620.75;4972188;28;20031;-73
2022/10/05 05:28:33;;;;;;;56.67;34.58;;;;;;;17.33;100.00;100624.25;4998688;28;20074;-73
2022/10/05 05:31:05;;;;;;;51.03;33.72;;;;;;;17.34;100.00;100625.94;4974591;28;20470;-73
2022/10/05 05:33:48;;;;;;;57.85;36.25;;;;;;;17.32;100.00;100633.25;4975484;28;20089;-71
2022/10/05 05:36:47;;;;;;;53.28;35.50;;;;;;;17.32;100.00;100633.25;5001267;28;20042;-70
2022/10/05 05:39:24;;;;;;;61.78;37.70;;;;;;;17.33;100.00;100634.94;4990385;28;20073;-69
2022/10/05 05:42:26;;;;;;;62.08;38.58;;;;;;;17.34;100.00;100631.28;4979660;28;20040;-70
2022/10/05 05:44:56;;;;;;;55.75;37.78;;;;;;;17.34;100.00;100639.28;4990902;28;20032;-71
2022/10/05 05:47:36;;;;;;;64.80;41.70;;;;;;;17.34;100.00;100652.63;4973860;28;20438;-73
2022/10/05 05:50:39;;;;;;;65.03;42.72;;;;;;;17.32;100.00;100648.47;4958794;28;20042;-71
2022/10/05 05:53:16;;;;;;;72.55;42.83;;;;;;;17.34;100.00;100651.78;5001450;28;20045;-74
2022/10/05 05:55:47;;;;;;;65.85;42.10;;;;;;;17.35;100.00;100654.28;4959017;28;20030;-71
2022/10/05 05:58:15;;;;;;;72.05;44.50;;;;;;;17.36;100.00;100655.13;4974991;28;20065;-72
2022/10/05 06:00:52;;;;;;;69.75;42.38;;;;;;;17.38;100.00;100659.31;4979363;28;20430;-73
2022/10/05 06:03:24;;;;;;;71.90;42.95;;;;;;;17.38;100.00;100656.63;4973517;28;20754;-71
2022/10/05 06:05:56;;;;;;;69.70;42.53;;;;;;;17.40;100.00;100645.81;4975207;28;20069;-71
2022/10/05 06:08:51;;;;;;;73.95;45.33;;;;;;;17.42;100.00;100658.00;4973896;28;20226;-71
2022/10/05 06:11:36;;;;;;;68.55;43.92;;;;;;;17.43;100.00;100645.50;4974528;28;20174;-70
2022/10/05 06:14:12;;;;;;;69.22;44.13;;;;;;;17.42;100.00;100639.31;4973845;28;20038;-71
2022/10/05 06:16:52;;;;;;;68.38;41.53;;;;;;;17.44;100.00;100648.00;4971704;28;20049;-71
2022/10/05 06:19:21;;;;;;;60.05;40.75;;;;;;;17.45;100.00;100654.16;4978346;28;20045;-71
2022/10/05 06:21:53;;;;;;;57.97;40.15;;;;;;;17.41;100.00;100648.31;4974883;28;20037;-71
2022/10/05 06:24:24;;;;;;;70.25;42.58;;;;;;;17.43;100.00;100657.00;4974222;28;20514;-72
2022/10/05 06:27:20;;;;;;;65.18;42.67;;;;;;;17.44;100.00;100666.66;4997191;28;20031;-71
2022/10/05 06:30:05;;;;;;;64.18;40.28;;;;;;;17.43;100.00;100664.19;4998346;28;20177;-71
2022/10/05 06:32:50;;;;;;;67.32;42.42;;;;;;;17.45;100.00;100673.69;4970559;28;20376;-71
2022/10/05 06:35:34;;;;;;;58.90;40.42;;;;;;;17.49;100.00;100667.06;4972145;28;20042;-72
2022/10/05 06:38:37;;;;;;;69.78;44.53;;;;;;;17.48;100.00;100675.22;4965518;28;20658;-73
2022/10/05 06:41:52;;;;;;;70.78;44.33;;;;;;;17.47;100.00;100669.03;4988053;28;20030;-72
2022/10/05 06:44:37;;;;;;;64.35;42.70;;;;;;;17.50;100.00;100684.72;4953221;28;20053;-72
2022/10/05 06:48:05;;;;;;;63.28;42.65;;;;;;;17.54;100.00;100687.91;5004406;28;20058;-72
2022/10/05 06:51:15;;;;;;;67.00;43.30;;;;;;;17.52;100.00;100685.41;4946714;28;20077;-72
2022/10/05 06:54:12;;;;;;;66.35;42.03;;;;;;;17.56;100.00;100689.41;4973225;28;20142;-71
2022/10/05 06:56:47;;;;;;;70.05;44.33;;;;;;;17.60;100.00;100692.66;4995796;28;20034;-73
2022/10/05 06:59:26;;;;;;;71.45;44.13;;;;;;;17.62;100.00;100693.28;4973883;28;20038;-72
2022/10/05 07:02:04;;;;;;;62.45;40.67;;;;;;;17.65;100.00;100703.66;4990313;28;20386;-72
2022/10/05 07:05:02;;;;;;;62.92;42.80;;;;;;;17.67;100.00;100706.19;4973840;28;20034;-72
2022/10/05 07:07:36;;;;;;;67.35;44.55;;;;;;;17.70;100.00;100700.50;4973380;28;20026;-73
2022/10/05 07:10:15;;;;;;;66.68;43.97;;;;;;;17.69;100.00;100709.50;4971869;28;20046;-70
2022/10/05 07:12:57;;;;;;;69.35;43.70;;;;;;;17.73;100.00;100705.53;5001869;28;20053;-71
2022/10/05 07:15:47;;;;;;;71.43;44.55;;;;;;;17.75;100.00;100715.06;4991941;28;20030;-70
2022/10/05 07:18:37;;;;;;;65.10;42.88;;;;;;;17.78;100.00;100725.41;4988350;28;20512;-72
2022/10/05 07:21:23;;;;;;;66.60;45.33;;;;;;;17.80;100.00;100727.91;4987359;28;20064;-72
2022/10/05 07:24:13;;;;;;;72.18;47.30;;;;;;;17.80;100.00;100728.75;4976944;28;20443;-71
2022/10/05 07:26:49;;;;;;;75.07;46.75;;;;;;;17.81;100.00;100729.59;4995677;28;20046;-73
2022/10/05 07:29:32;;;;;;;70.07;46.78;;;;;;;17.82;100.00;100731.25;4973550;28;20062;-73
2022/10/05 07:32:32;;;;;;;71.97;46.55;;;;;;;17.83;100.00;100739.13;4973840;28;20038;-72
2022/10/05 07:38:19;;;;;;;;;;;;;;;17.90;100.00;100744.66;4997717;28;20042;-71
2022/10/05 07:41:12;;;;;;;73.70;45.80;;;;;;;17.94;100.00;100735.31;4990655;28;19918;-72
2022/10/05 07:43:56;;;;;;;69.07;45.60;;;;;;;17.99;100.00;100743.69;4985953;28;20044;-73
2022/10/05 07:46:47;;;;;;;72.85;46.78;;;;;;;17.99;100.00;100746.34;4973307;28;20081;-74
2022/10/05 07:49:33;;;;;;;79.65;47.88;;;;;;;18.04;100.00;100746.69;4996958;28;20043;-74
2022/10/05 07:52:02;;;;;;;70.32;44.67;;;;;;;18.06;100.00;100750.06;4968794;28;20388;-74
2022/10/05 07:54:39;;;;;;;64.88;44.15;;;;;;;18.08;100.00;100758.75;4976894;28;20137;-74
2022/10/05 07:57:23;;;;;;;68.70;46.05;;;;;;;18.09;100.00;100755.06;4969355;28;20089;-74
2022/10/05 07:59:48;;;;;;;67.00;44.38;;;;;;;18.16;100.00;100757.91;4971323;28;20058;-75
2022/10/05 08:02:43;;;;;;;69.50;45.53;;;;;;;18.17;100.00;100757.75;4972882;28;20428;-73
2022/10/05 08:05:18;;;;;;;65.20;43.80;;;;;;;18.20;100.00;100757.41;4960510;28;20582;-73
2022/10/05 08:07:46;;;;;;;72.25;46.03;;;;;;;18.20;100.00;100762.75;4990846;28;20762;-73
2022/10/05 08:10:50;;;;;;;73.93;45.78;;;;;;;18.30;100.00;100762.66;4990231;28;20436;-75
2022/10/05 08:13:44;;;;;;;69.85;44.65;;;;;;;18.30;100.00;100766.16;4979821;28;20065;-75
2022/10/05 08:16:11;;;;;;;66.32;45.67;;;;;;;18.37;100.00;100769.84;4969777;28;20077;-75
2022/10/05 08:18:58;;;;;;;63.08;42.80;;;;;;;18.40;100.00;100763.31;4990187;28;20022;-74
2022/10/05 08:21:30;;;;;;;67.65;44.20;;;;;;;18.44;100.00;100769.19;4990026;28;20641;-75
2022/10/05 08:24:19;;;;;;;60.42;41.35;;;;;;;18.48;100.00;100771.38;4989613;28;20501;-76
2022/10/05 08:26:54;;;;;;;69.93;43.13;;;;;;;18.50;100.00;100779.19;4987760;28;20031;-74
2022/10/05 08:29:44;;;;;;;68.55;44.83;;;;;;;18.50;100.00;100774.69;4972270;28;20046;-75
2022/10/05 08:32:18;;;;;;;68.75;45.13;;;;;;;18.53;100.00;100779.72;4992021;28;20402;-74
2022/10/05 08:34:50;;;;;;;69.82;43.40;;;;;;;18.57;100.00;100785.59;4973221;28;20149;-75
2022/10/05 08:37:27;;;;;;;71.57;47.92;;;;;;;18.56;100.00;100783.94;4989892;28;20121;-73
2022/10/05 08:40:01;;;;;;;75.15;45.22;;;;;;;18.48;100.00;100786.56;4990323;28;20027;-75
2022/10/05 08:43:00;;;;;;;69.05;45.35;;;;;;;18.56;100.00;100789.28;4989777;28;20065;-75
2022/10/05 08:45:50;;;;;;;71.40;45.22;;;;;;;18.57;100.00;100789.13;4989015;28;20030;-73
2022/10/05 08:48:43;;;;;;;67.82;45.40;;;;;;;18.63;100.00;100800.97;4970313;28;20403;-72
2022/10/05 08:51:54;;;;;;;70.40;45.80;;;;;;;18.67;100.00;100791.66;4991440;28;20418;-73
2022/10/05 08:54:37;;;;;;;;;;;;;;;18.74;100.00;100787.28;4987609;28;20054;-75
2022/10/05 08:57:24;;;;;;;71.30;45.10;;;;;;;18.78;100.00;100796.69;4992777;28;19918;-75
2022/10/05 09:00:09;;;;;;;63.80;42.90;;;;;;;18.86;100.00;100796.66;4977578;28;20038;-73
2022/10/05 09:03:01;;;;;;;72.65;47.70;;;;;;;18.96;100.00;100792.00;4990117;28;20077;-75
2022/10/05 09:05:35;;;;;;;64.20;42.72;;;;;;;19.03;100.00;100803.69;4975763;28;20046;-74
2022/10/05 09:08:35;;;;;;;70.30;45.65;;;;;;;19.02;100.00;100796.69;4993486;28;20062;-74
2022/10/05 09:11:08;;;;;;;68.45;45.42;;;;;;;19.04;100.00;100794.66;4996860;28;20121;-75
2022/10/05 09:13:36;;;;;;;65.05;44.45;;;;;;;18.96;100.00;100802.72;4991877;28;20457;-74
2022/10/05 09:16:35;;;;;;;69.68;46.78;;;;;;;18.94;100.00;100799.34;4972024;28;20038;-74
2022/10/05 09:19:42;;;;;;;70.22;44.70;;;;;;;19.05;100.00;100804.38;4993481;28;20042;-74
2022/10/05 09:22:22;;;;;;;65.18;43.65;;;;;;;19.04;100.00;100804.53;4967840;28;20054;-73
2022/10/05 09:25:16;;;;;;;70.53;44.92;;;;;;;19.04;100.00;100805.38;4993183;28;20153;-74
2022/10/05 09:27:53;;;;;;;70.53;45.42;;;;;;;19.03;100.00;100809.03;4989990;28;20041;-73
2022/10/05 09:30:31;;;;;;;64.75;44.50;;;;;;;19.11;100.00;100806.38;4993898;28;20509;-73
2022/10/05 09:33:15;;;;;;;64.85;43.22;;;;;;;19.20;100.00;100812.59;4993492;28;20386;-73
2022/10/05 09:36:02;;;;;;;65.82;44.25;;;;;;;19.26;100.00;100814.59;4992057;28;20145;-75
2022/10/05 09:38:53;;;;;;;67.32;45.10;;;;;;;19.21;100.00;100812.38;4992713;28;20121;-75
2022/10/05 09:41:40;;;;;;;71.32;45.33;;;;;;;19.26;100.00;100808.41;4990701;28;20551;-75
2022/10/05 09:44:14;;;;;;;69.38;45.05;;;;;;;19.33;100.00;100806.69;4990562;28;20545;-74
2022/10/05 09:47:00;;;;;;;65.35;43.65;;;;;;;19.36;100.00;100803.69;5002673;28;20459;-75
2022/10/05 09:50:10;;;;;;;67.78;46.35;;;;;;;19.15;100.00;100813.06;4994849;28;20042;-73
2022/10/05 09:52:55;;;;;;;66.15;46.05;;;;;;;19.13;100.00;100804.38;4989488;28;20026;-76
2022/10/05 09:55:39;;;;;;;71.55;45.90;;;;;;;18.66;100.00;100811.38;4989548;28;20054;-75
2022/10/05 09:58:42;;;;;;;69.72;45.38;;;;;;;19.07;100.00;100810.41;4989483;28;20050;-74
2022/10/05 10:01:31;;;;;;;65.85;44.88;;;;;;;19.23;100.00;100805.03;4989178;28;20038;-77
2022/10/05 10:04:17;;;;;;;61.25;42.00;;;;;;;19.44;100.00;100806.38;4992751;28;20038;-76
2022/10/05 10:07:03;;;;;;;64.75;44.60;;;;;;;19.57;100.00;100806.69;4991449;28;20483;-74
2022/10/05 10:09:53;;;;;;;66.95;44.70;;;;;;;19.69;100.00;100804.50;4992341;28;20035;-72
2022/10/05 10:12:24;;;;;;;65.75;44.55;;;;;;;19.79;100.00;100799.78;4989764;28;20031;-72
2022/10/05 10:15:15;;;;;;;61.38;43.85;;;;;;;19.76;100.00;100810.84;4991991;28;20038;-73
2022/10/05 10:18:26;;;;;;;68.32;45.25;;;;;;;19.80;100.00;100807.63;4989446;28;20813;-74
2022/10/05 10:21:08;;;;;;;67.40;44.00;;;;;;;19.73;100.00;100813.88;4992934;28;20120;-74
2022/10/05 10:23:49;;;;;;;58.60;40.90;;;;;;;19.88;100.00;100807.63;4972404;28;20085;-73
2022/10/05 10:26:46;;;;;;;61.40;42.53;;;;;;;20.02;100.00;100806.91;4993760;28;20125;-74
2022/10/05 10:29:25;;;;;;;54.95;39.60;;;;;;;20.12;100.00;100803.19;4988385;28;20038;-74
2022/10/05 10:32:18;;;;;;;60.25;41.63;;;;;;;20.21;100.00;100799.44;4991927;28;20038;-75
2022/10/05 10:34:58;;;;;;;62.65;42.80;;;;;;;20.20;100.00;100804.00;4972085;28;20061;-74
2022/10/05 10:37:38;;;;;;;58.88;40.80;;;;;;;20.27;100.00;100804.09;4991368;28;20073;-74
2022/10/05 10:40:33;;;;;;;67.30;41.70;;;;;;;20.40;100.00;100793.69;4988054;28;20039;-73
2022/10/05 10:43:33;;;;;;;59.47;39.63;;;;;;;20.58;100.00;100794.25;4990581;28;20085;-75
2022/10/05 10:46:08;;;;;;;61.35;39.20;;;;;;;20.69;100.00;100793.81;4995526;28;20034;-75
2022/10/05 10:48:39;;;;;;;55.17;37.40;;;;;;;20.76;100.00;100800.16;4987624;28;20036;-74
2022/10/05 10:51:11;;;;;;;56.22;38.40;;;;;;;20.87;100.00;100790.84;4987195;28;20479;-74
2022/10/05 10:54:11;;;;;;;56.10;38.20;;;;;;;20.96;100.00;100789.78;4987990;28;20054;-74
2022/10/05 10:56:53;;;;;;;51.58;37.40;;;;;;;20.94;100.00;100780.25;4991362;28;20110;-74
2022/10/05 10:59:27;;;;;;;58.80;37.97;;;;;;;20.88;100.00;100786.31;4999350;28;20038;-73
2022/10/05 11:02:26;;;;;;;54.00;37.47;;;;;;;20.98;100.00;100779.69;4990040;28;20030;-72
2022/10/05 11:04:54;;;;;;;48.42;33.45;;;;;;;21.08;100.00;100782.16;4993780;28;20442;-74
2022/10/05 11:07:41;;;;;;;47.80;34.25;;;;;;;21.16;100.00;100779.41;4990852;28;20034;-73
2022/10/05 11:10:08;;;;;;;50.60;35.13;;;;;;;21.24;100.00;100772.13;4989770;28;20038;-72
2022/10/05 11:12:56;;;;;;;50.80;35.30;;;;;;;21.12;100.00;100767.34;4986912;28;20117;-76
2022/10/05 11:15:46;;;;;;;46.13;33.30;;;;;;;21.16;100.00;100776.72;4989643;28;20038;-73
2022/10/05 11:18:30;;;;;;;47.60;33.03;;;;;;;21.22;100.00;100767.94;4995176;28;20399;-74
2022/10/05 11:21:15;;;;;;;45.17;31.88;;;;;;;21.37;100.00;100760.75;4991040;28;20026;-73
2022/10/05 11:24:11;;;;;;;43.03;31.40;;;;;;;21.50;100.00;100760.94;4975448;28;20454;-73
2022/10/05 11:27:04;;;;;;;37.58;29.10;;;;;;;21.47;100.00;100755.94;4987273;28;20494;-73
2022/10/05 11:30:08;;;;;;;40.10;29.13;;;;;;;21.45;100.00;100755.28;4989809;28;20049;-73
2022/10/05 11:33:21;;;;;;;32.08;24.27;;;;;;;21.58;100.00;100742.06;4943645;28;20034;-74
2022/10/05 11:35:53;;;;;;;32.60;23.55;;;;;;;21.67;100.00;100750.03;4947081;28;20047;-75
2022/10/05 11:38:42;;;;;;;30.70;24.17;;;;;;;21.79;100.00;100743.16;4990773;28;20080;-74
2022/10/05 11:41:45;;;;;;;30.95;23.13;;;;;;;21.89;100.00;100743.72;4987792;28;20031;-74
2022/10/05 11:44:23;;;;;;;26.10;21.23;;;;;;;21.98;100.00;100743.44;4989681;28;20034;-72
2022/10/05 11:47:13;;;;;;;28.95;20.40;;;;;;;22.11;100.00;100742.75;4988434;28;20034;-74
2022/10/05 11:50:12;;;;;;;24.95;18.75;;;;;;;22.19;100.00;100734.59;4643865;28;10001278;-74
2022/10/05 11:52:45;;;;;;;25.85;20.95;;;;;;;22.25;100.00;100733.84;4985223;28;20035;-74
2022/10/05 11:55:22;;;;;;;26.38;20.52;;;;;;;22.21;100.00;100737.91;4987989;28;20042;-76
2022/10/05 11:57:57;;;;;;;30.65;20.83;;;;;;;22.20;100.00;100736.28;4988040;28;20454;-75
2022/10/05 12:00:35;;;;;;;29.45;21.35;;;;;;;22.26;100.00;100738.22;4987458;28;20043;-72
2022/10/05 12:03:35;;;;;;;27.88;21.85;;;;;;;22.28;100.00;100728.06;4988274;28;20046;-76
2022/10/05 12:06:43;;;;;;;26.17;19.75;;;;;;;22.43;100.00;100719.97;4918296;28;20054;-73
2022/10/05 12:10:12;;;;;;;24.85;19.73;;;;;;;22.55;100.00;100734.56;4986196;28;20066;-73
2022/10/05 12:12:31;;;;;;;27.40;19.38;;;;;;;22.64;100.00;100732.56;4986246;28;20100;-74
2022/10/05 12:15:24;;;;;;;30.13;21.73;;;;;;;22.68;100.00;100725.81;4987909;28;20045;-74
2022/10/05 12:18:05;;;;;;;27.10;22.08;;;;;;;22.71;99.90;100728.94;4986931;28;20121;-74